Time;durP1;ratioP1;P1;durP2;ratioP2;P2;SDS_P1;SDS_P2;PMS_P1;PMS_P2;Temp;Humidity;BMP_temperature;BMP_pressure;BME280_temperature;BME280_humidity;BME280_pressure;Samples;Min_cycle;Max_cycle;Signal;HPM_P1;HPM_P2
2022/08/16 00:00:53;;;;;;;9.02;3.22;;;;;;;23.74;91.62;99746.91;4983669;28;20046;-89
2022/08/16 00:03:19;;;;;;;8.15;3.58;;;;;;;23.92;89.68;99738.31;4985940;28;20041;-90
2022/08/16 00:05:45;;;;;;;7.82;3.78;;;;;;;23.70;91.32;99748.53;4992196;28;20031;-87
2022/08/16 00:08:11;;;;;;;8.15;3.45;;;;;;;23.47;93.22;99747.09;4991062;28;20090;-88
2022/08/16 00:10:37;;;;;;;11.05;3.25;;;;;;;23.39;95.53;99749.50;4991974;28;20062;-89
2022/08/16 00:13:05;;;;;;;21.23;4.60;;;;;;;23.06;99.05;99756.91;4997729;28;20038;-87
2022/08/16 00:15:44;;;;;;;8.95;4.88;;;;;;;22.93;100.00;99757.38;4969767;28;20082;-86
2022/08/16 00:18:14;;;;;;;14.20;5.20;;;;;;;22.88;100.00;99751.94;4971351;28;20085;-87
2022/08/16 00:20:41;;;;;;;11.05;5.05;;;;;;;22.80;100.00;99747.03;4980172;28;20035;-88
2022/08/16 00:23:07;;;;;;;12.13;6.20;;;;;;;22.68;100.00;99743.69;4982927;28;20437;-87
2022/08/16 00:25:36;;;;;;;15.25;5.32;;;;;;;22.64;100.00;99753.34;4982737;28;20093;-88
2022/08/16 00:28:01;;;;;;;8.63;5.75;;;;;;;22.65;100.00;99755.81;4992215;28;20047;-89
2022/08/16 00:30:27;;;;;;;15.13;6.00;;;;;;;22.77;100.00;99761.03;4983661;28;20038;-87
2022/08/16 00:32:53;;;;;;;14.05;5.43;;;;;;;;;;4986249;28;20483;-88
2022/08/16 00:35:26;;;;;;;16.20;5.90;;;;;;;22.78;100.00;99767.25;4987413;28;20027;-87
2022/08/16 00:37:51;;;;;;;;;;;;;;;23.00;100.00;99768.75;4984348;28;20035;-89
2022/08/16 00:40:22;;;;;;;10.43;5.53;;;;;;;23.03;99.24;99768.25;4993155;28;20016;-88
2022/08/16 00:42:50;;;;;;;8.55;5.72;;;;;;;22.90;100.00;99776.00;4980068;28;20130;-86
2022/08/16 00:45:32;;;;;;;8.80;5.45;;;;;;;22.63;100.00;99765.25;4992637;28;20095;-86
2022/08/16 00:47:57;;;;;;;13.23;5.53;;;;;;;22.62;100.00;99771.72;4983830;28;20038;-89
2022/08/16 00:50:28;;;;;;;9.00;5.93;;;;;;;22.63;100.00;99767.94;4985561;28;20035;-88
2022/08/16 00:52:53;;;;;;;10.38;5.60;;;;;;;22.63;100.00;99759.84;4979210;28;20060;-85
2022/08/16 00:55:23;;;;;;;16.20;5.35;;;;;;;22.72;100.00;99752.91;4983572;28;20118;-86
2022/08/16 00:57:53;;;;;;;8.57;5.43;;;;;;;22.81;100.00;99756.75;4992498;28;20102;-83
2022/08/16 01:00:19;;;;;;;10.57;5.43;;;;;;;22.83;100.00;99757.31;4999414;28;20049;-85
2022/08/16 01:02:45;;;;;;;6.30;4.47;;;;;;;22.88;100.00;99759.22;5018729;28;20042;-86
2022/08/16 01:05:13;;;;;;;9.27;4.95;;;;;;;22.86;100.00;99764.91;4994433;28;20131;-83
2022/08/16 01:07:41;;;;;;;7.93;5.20;;;;;;;22.92;100.00;99763.84;4986367;28;20048;-87
2022/08/16 01:10:10;;;;;;;10.00;5.13;;;;;;;22.94;100.00;99759.00;4980436;28;20379;-88
2022/08/16 01:12:35;;;;;;;7.70;4.80;;;;;;;22.92;100.00;99761.16;4989667;28;20034;-86
2022/08/16 01:15:02;;;;;;;9.73;4.70;;;;;;;22.87;100.00;99763.81;4974674;28;20042;-89
2022/08/16 01:17:29;;;;;;;11.15;4.32;;;;;;;22.95;98.68;99771.44;4991572;28;20054;-88
2022/08/16 01:20:00;;;;;;;9.23;4.20;;;;;;;23.09;98.26;99778.00;4997539;28;20042;-87
2022/08/16 01:22:46;;;;;;;14.32;5.00;;;;;;;22.96;98.62;99772.25;4995807;28;20109;-89
2022/08/16 01:25:19;;;;;;;13.68;4.32;;;;;;;22.89;98.41;99777.06;4971774;28;20042;-87
2022/08/16 01:27:51;;;;;;;10.07;4.28;;;;;;;22.86;98.83;99767.59;4977996;28;20396;-86
2022/08/16 01:30:27;;;;;;;14.20;4.38;;;;;;;22.94;98.07;99777.91;4976353;28;20114;-84
2022/08/16 01:32:56;;;;;;;9.75;4.32;;;;;;;22.96;97.89;99778.47;4959405;28;20086;-88
2022/08/16 01:35:27;;;;;;;6.07;3.70;;;;;;;23.05;98.43;99776.91;4960567;28;20043;-87
2022/08/16 01:37:56;;;;;;;11.88;4.45;;;;;;;23.00;98.39;99779.56;4969414;28;20049;-85
2022/08/16 01:40:29;;;;;;;9.73;4.65;;;;;;;23.01;97.79;99781.19;4959295;28;20112;-87
2022/08/16 01:42:56;;;;;;;9.50;4.57;;;;;;;22.87;98.89;99782.72;4958061;28;20086;-88
2022/08/16 01:45:23;;;;;;;5.68;3.90;;;;;;;22.98;97.26;99787.13;4970956;28;20158;-88
2022/08/16 01:47:50;;;;;;;7.47;4.70;;;;;;;23.11;96.41;99792.06;4977380;28;20041;-86
2022/08/16 01:50:20;;;;;;;10.13;4.90;;;;;;;23.26;95.15;99787.84;4994746;28;20026;-87
2022/08/16 01:52:47;;;;;;;13.23;5.43;;;;;;;23.25;94.41;99787.00;4977743;28;20089;-86
2022/08/16 01:55:17;;;;;;;8.38;4.80;;;;;;;23.47;92.30;99794.97;4996952;28;20057;-86
2022/08/16 01:57:44;;;;;;;8.90;4.80;;;;;;;23.29;92.43;99787.31;4984427;28;20042;-86
2022/08/16 02:00:10;;;;;;;12.25;4.78;;;;;;;23.26;93.62;99791.34;4967806;28;20030;-85
2022/08/16 02:02:39;;;;;;;7.95;4.90;;;;;;;23.10;94.63;99790.44;5004609;28;20058;-82
2022/08/16 02:05:05;;;;;;;9.25;4.82;;;;;;;23.03;95.07;99783.66;4998797;28;20046;-87
2022/08/16 02:07:32;;;;;;;8.38;5.00;;;;;;;23.06;94.70;99789.34;5015966;28;20168;-85
2022/08/16 02:09:59;;;;;;;12.63;5.47;;;;;;;23.05;94.92;99782.31;5004485;28;20042;-88
2022/08/16 02:12:33;;;;;;;8.75;5.07;;;;;;;22.66;98.62;99772.88;4977537;28;20042;-89
2022/08/16 02:14:59;;;;;;;12.30;5.45;;;;;;;22.59;99.59;99775.75;4952641;28;20039;-86
2022/08/16 02:17:25;;;;;;;12.30;6.60;;;;;;;22.64;99.07;99781.19;4958663;28;20033;-88
2022/08/16 02:19:52;;;;;;;8.93;6.18;;;;;;;22.64;99.05;99786.59;4974754;28;20035;-89
2022/08/16 02:22:21;;;;;;;12.23;5.78;;;;;;;22.56;100.00;99784.38;4958434;28;20038;-88
2022/08/16 02:24:47;;;;;;;11.95;6.13;;;;;;;22.45;100.00;99798.03;4975022;28;20038;-86
2022/08/16 02:27:13;;;;;;;17.80;5.70;;;;;;;22.36;100.00;99786.91;4975528;28;20031;-87
2022/08/16 02:29:39;;;;;;;11.23;6.13;;;;;;;21.98;100.00;99787.88;4958140;28;20035;-86
2022/08/16 02:32:05;;;;;;;12.32;6.30;;;;;;;21.68;100.00;99790.22;4975694;28;20354;-88
2022/08/16 02:34:31;;;;;;;11.95;7.45;;;;;;;21.43;100.00;99784.50;4975374;28;20042;-87
2022/08/16 02:36:57;;;;;;;21.17;8.40;;;;;;;21.32;100.00;99788.97;4975492;28;20053;-86
2022/08/16 02:39:24;;;;;;;15.55;9.02;;;;;;;21.38;100.00;99798.72;4942358;28;20043;-89
2022/08/16 02:41:52;;;;;;;14.35;8.30;;;;;;;21.41;100.00;99792.06;4958092;28;20456;-88
2022/08/16 02:44:18;;;;;;;13.38;8.80;;;;;;;21.39;100.00;99794.16;4958366;28;20030;-86
2022/08/16 02:46:48;;;;;;;14.18;7.82;;;;;;;21.42;100.00;99796.34;4975651;28;20043;-88
2022/08/16 02:49:14;;;;;;;12.77;7.88;;;;;;;21.36;100.00;99808.97;4958808;28;20069;-88
2022/08/16 02:51:41;;;;;;;11.07;6.85;;;;;;;21.38;100.00;99814.91;4958024;28;20034;-89
2022/08/16 02:54:08;;;;;;;12.30;7.93;;;;;;;21.52;100.00;99805.41;4957950;28;20373;-87
2022/08/16 02:56:35;;;;;;;16.02;7.18;;;;;;;21.39;100.00;99810.34;4958368;28;20042;-87
2022/08/16 02:59:02;;;;;;;12.27;7.55;;;;;;;21.29;100.00;99799.41;4975620;28;20511;-87
2022/08/16 03:01:30;;;;;;;16.42;7.30;;;;;;;21.33;100.00;99811.34;4958181;28;20035;-86
2022/08/16 03:03:58;;;;;;;9.55;6.85;;;;;;;21.35;100.00;99809.19;4958137;28;20432;-89
2022/08/16 03:06:25;;;;;;;10.80;6.45;;;;;;;21.47;100.00;99812.63;4960666;28;20070;-88
2022/08/16 03:08:53;;;;;;;11.45;6.50;;;;;;;21.47;100.00;99824.22;4966855;28;20110;-86
2022/08/16 03:11:21;;;;;;;18.85;6.93;;;;;;;21.36;100.00;99827.84;4949172;28;20481;-85
2022/08/16 03:13:50;;;;;;;10.95;6.65;;;;;;;21.51;100.00;99824.53;4960127;28;20059;-86
2022/08/16 03:16:16;;;;;;;13.15;6.95;;;;;;;21.54;100.00;99824.03;4959144;28;20038;-85
2022/08/16 03:18:43;;;;;;;14.10;6.50;;;;;;;21.52;100.00;99820.75;4958706;28;20121;-86
2022/08/16 03:21:11;;;;;;;10.88;6.18;;;;;;;21.50;100.00;99814.81;4958261;28;20035;-84
2022/08/16 03:23:38;;;;;;;12.27;5.22;;;;;;;21.43;100.00;99820.38;4975108;28;20122;-83
2022/08/16 03:26:07;;;;;;;15.57;6.35;;;;;;;21.37;100.00;99812.47;4957514;28;20119;-87
2022/08/16 03:28:33;;;;;;;13.38;5.70;;;;;;;21.35;100.00;99825.38;4957426;28;20484;-86
2022/08/16 03:30:59;;;;;;;11.10;5.85;;;;;;;21.31;100.00;99829.66;4957558;28;20066;-85
2022/08/16 03:33:25;;;;;;;10.93;5.93;;;;;;;21.33;100.00;99825.63;4957228;28;20465;-85
2022/08/16 03:35:58;;;;;;;10.40;5.90;;;;;;;21.33;100.00;99822.13;4974863;28;20039;-83
2022/08/16 03:38:31;;;;;;;11.20;6.00;;;;;;;21.33;100.00;99808.66;4958948;28;20432;-85
2022/08/16 03:40:59;;;;;;;9.57;5.78;;;;;;;21.31;100.00;99808.88;4957274;28;20043;-83
2022/08/16 03:43:28;;;;;;;12.82;6.40;;;;;;;21.24;100.00;99812.84;4957518;28;20094;-89
2022/08/16 03:45:56;;;;;;;13.82;7.13;;;;;;;21.26;100.00;99810.69;4957475;28;20043;-85
2022/08/16 03:48:28;;;;;;;14.85;7.05;;;;;;;21.28;100.00;99814.78;4957083;28;20475;-86
2022/08/16 03:50:54;;;;;;;12.40;8.20;;;;;;;21.28;100.00;99809.38;4957230;28;20035;-89
2022/08/16 03:53:20;;;;;;;15.73;8.95;;;;;;;21.30;100.00;99801.06;4957582;28;20039;-88
2022/08/16 03:55:46;;;;;;;9.50;8.27;;;;;;;21.35;100.00;99803.81;4943307;28;20042;-83
2022/08/16 03:58:14;;;;;;;16.60;8.40;;;;;;;21.33;100.00;99803.25;4973824;28;20039;-83
2022/08/16 04:00:41;;;;;;;15.82;9.05;;;;;;;21.28;100.00;99819.38;4983452;28;20534;-88
2022/08/16 04:03:10;;;;;;;19.10;10.38;;;;;;;21.26;100.00;99818.78;4960403;28;20037;-87
2022/08/16 04:05:44;;;;;;;15.48;9.60;;;;;;;21.26;100.00;99816.91;4960504;28;20039;-84
2022/08/16 04:08:12;;;;;;;;;;;;;;;21.34;100.00;99823.75;4961051;28;20035;-87
2022/08/16 04:10:39;;;;;;;14.57;10.27;;;;;;;21.46;100.00;99814.50;4963160;28;19918;-83
2022/08/16 04:13:05;;;;;;;16.67;9.77;;;;;;;21.47;100.00;99823.41;4944773;28;20050;-87
2022/08/16 04:15:32;;;;;;;13.10;9.48;;;;;;;21.51;100.00;99817.25;4960611;28;20042;-82
2022/08/16 04:18:17;;;;;;;16.58;9.88;;;;;;;21.53;100.00;99819.69;4960852;28;20046;-88
2022/08/16 04:20:44;;;;;;;18.45;10.10;;;;;;;21.34;100.00;99829.16;4962011;28;20038;-83
2022/08/16 04:23:11;;;;;;;18.33;9.35;;;;;;;21.53;100.00;99825.09;4960685;28;20472;-84
2022/08/16 04:25:41;;;;;;;19.08;9.77;;;;;;;21.49;100.00;99818.56;4976381;28;20042;-84
2022/08/16 04:28:08;;;;;;;17.73;9.98;;;;;;;21.21;100.00;99824.13;4962997;28;20035;-85
2022/08/16 04:30:35;;;;;;;16.80;10.90;;;;;;;21.11;100.00;99824.78;4961399;28;20034;-86
2022/08/16 04:33:02;;;;;;;18.05;11.23;;;;;;;21.10;100.00;99823.97;4959741;28;20503;-87
2022/08/16 04:35:30;;;;;;;17.20;9.85;;;;;;;21.17;100.00;99839.16;4959872;28;20039;-87
2022/08/16 04:37:56;;;;;;;19.55;10.38;;;;;;;21.11;100.00;99836.38;4977196;28;20370;-82
2022/08/16 04:40:26;;;;;;;16.98;10.00;;;;;;;21.03;100.00;99838.66;4960720;28;20062;-85
2022/08/16 04:42:54;;;;;;;15.40;9.82;;;;;;;20.95;100.00;99847.94;4961284;28;20058;-86
2022/08/16 04:45:23;;;;;;;17.25;9.32;;;;;;;20.78;100.00;99855.22;4960117;28;20030;-86
2022/08/16 04:47:49;;;;;;;12.88;9.00;;;;;;;20.63;100.00;99857.66;4960568;28;20059;-84
2022/08/16 04:50:23;;;;;;;18.75;10.10;;;;;;;20.63;100.00;99871.94;4960460;28;20077;-86
2022/08/16 04:53:05;;;;;;;20.65;10.60;;;;;;;20.70;100.00;99873.66;4962396;28;20350;-84
2022/08/16 04:55:33;;;;;;;20.23;10.90;;;;;;;20.73;100.00;99876.69;4960707;28;20125;-85
2022/08/16 04:57:58;;;;;;;17.25;10.43;;;;;;;20.68;100.00;99868.53;4980795;28;20094;-83
2022/08/16 05:00:32;;;;;;;23.33;10.52;;;;;;;20.61;100.00;99870.56;4960760;28;20489;-85
2022/08/16 05:03:04;;;;;;;16.35;10.32;;;;;;;20.83;100.00;99873.34;4959710;28;20038;-87
2022/08/16 05:05:34;;;;;;;18.30;10.68;;;;;;;20.77;100.00;99880.53;4959540;28;20377;-85
2022/08/16 05:08:00;;;;;;;16.25;10.90;;;;;;;20.75;100.00;99882.63;4960338;28;20042;-88
2022/08/16 05:10:29;;;;;;;16.75;10.68;;;;;;;20.81;100.00;99879.00;4959451;28;20081;-86
2022/08/16 05:12:56;;;;;;;14.63;11.18;;;;;;;21.02;100.00;99883.63;4977297;28;20066;-87
2022/08/16 05:15:21;;;;;;;15.30;11.02;;;;;;;21.12;100.00;99889.22;4959172;28;20053;-85
2022/08/16 05:17:47;;;;;;;18.40;11.57;;;;;;;21.00;100.00;99898.41;4959537;28;20035;-88
2022/08/16 05:20:17;;;;;;;20.35;11.80;;;;;;;21.08;100.00;99889.91;4959106;28;20098;-86
2022/08/16 05:22:43;;;;;;;17.52;10.50;;;;;;;21.09;100.00;99884.31;4959289;28;20039;-86
2022/08/16 05:25:13;;;;;;;15.15;10.90;;;;;;;21.11;100.00;99884.88;4943296;28;20035;-87
2022/08/16 05:27:45;;;;;;;22.50;10.95;;;;;;;21.28;100.00;99884.06;4960557;28;20496;-87
2022/08/16 05:30:15;;;;;;;16.55;10.32;;;;;;;21.43;100.00;99876.19;4961052;28;20027;-88
2022/08/16 05:32:42;;;;;;;17.15;10.38;;;;;;;21.65;100.00;99895.91;4959978;28;20035;-85
2022/08/16 05:35:11;;;;;;;25.58;10.13;;;;;;;21.91;100.00;99897.88;4959482;28;20045;-86
2022/08/16 05:37:39;;;;;;;15.35;9.48;;;;;;;22.05;100.00;99895.63;4977333;28;20035;-85
2022/08/16 05:40:08;;;;;;;11.60;8.90;;;;;;;22.15;100.00;99888.47;4961678;28;20377;-88
2022/08/16 05:42:38;;;;;;;20.40;10.00;;;;;;;22.20;100.00;99890.41;4977965;28;20051;-86
2022/08/16 05:45:05;;;;;;;17.95;9.48;;;;;;;22.47;100.00;99899.31;4961106;28;20388;-86
2022/08/16 05:47:31;;;;;;;12.27;8.77;;;;;;;22.61;100.00;99902.44;4959777;28;20039;-84
2022/08/16 05:49:57;;;;;;;19.10;10.15;;;;;;;22.48;100.00;99905.53;4959638;28;20410;-83
2022/08/16 05:52:22;;;;;;;16.05;8.98;;;;;;;22.53;100.00;99901.03;4958780;28;20034;-85
2022/08/16 05:54:53;;;;;;;14.38;9.30;;;;;;;22.65;100.00;99900.84;4975770;28;20114;-85
2022/08/16 05:57:20;;;;;;;17.38;8.98;;;;;;;23.17;100.00;99904.56;4977420;28;20034;-88
2022/08/16 05:59:55;;;;;;;14.57;8.68;;;;;;;23.64;100.00;99903.81;4976731;28;20443;-86
2022/08/16 06:02:23;;;;;;;15.98;8.75;;;;;;;23.66;100.00;99912.50;4959341;28;20034;-85
2022/08/16 06:04:49;;;;;;;13.93;8.48;;;;;;;23.56;100.00;99915.16;4959152;28;20437;-85
2022/08/16 06:07:16;;;;;;;15.00;8.65;;;;;;;23.73;100.00;99917.69;4959234;28;20030;-86
2022/08/16 06:09:47;;;;;;;13.27;8.20;;;;;;;24.01;100.00;99914.56;4959684;28;20126;-86
2022/08/16 06:12:18;;;;;;;15.10;8.20;;;;;;;24.34;99.96;99918.75;4964356;28;20046;-84
2022/08/16 06:14:44;;;;;;;10.80;7.43;;;;;;;24.62;93.20;99923.72;4948146;28;20063;-85
2022/08/16 06:17:09;;;;;;;15.10;7.50;;;;;;;25.29;87.18;99914.53;4980847;28;20029;-86
2022/08/16 06:19:35;;;;;;;12.73;6.95;;;;;;;25.74;85.22;99925.34;4979798;28;20039;-86
2022/08/16 06:22:08;;;;;;;12.93;7.15;;;;;;;25.19;86.55;99927.00;4971529;28;20054;-87
2022/08/16 06:24:34;;;;;;;11.23;6.63;;;;;;;25.55;83.19;99929.72;4958471;28;20035;-90
2022/08/16 06:26:59;;;;;;;10.05;7.03;;;;;;;25.17;87.25;99929.19;4957849;28;20042;-82
2022/08/16 06:29:30;;;;;;;10.98;7.22;;;;;;;26.13;80.49;99934.41;4959661;28;20468;-89
2022/08/16 06:31:56;;;;;;;15.40;6.70;;;;;;;25.58;84.37;99935.41;4958707;28;20102;-87
2022/08/16 06:34:23;;;;;;;13.10;7.40;;;;;;;24.80;89.67;99936.72;4958479;28;20042;-86
2022/08/16 06:36:50;;;;;;;14.32;6.65;;;;;;;25.60;83.51;99937.84;4957739;28;20499;-85
2022/08/16 06:39:21;;;;;;;11.05;6.70;;;;;;;25.83;80.63;99937.25;4959986;28;20070;-87
2022/08/16 06:41:54;;;;;;;12.82;6.50;;;;;;;25.57;84.10;99938.41;4958022;28;20038;-85
2022/08/16 06:44:38;;;;;;;12.93;7.05;;;;;;;25.28;84.98;99940.03;4958201;28;20035;-87
2022/08/16 06:47:12;;;;;;;12.90;6.95;;;;;;;24.91;88.45;99940.31;4958179;28;20492;-81
2022/08/16 06:49:38;;;;;;;13.30;6.72;;;;;;;25.07;87.27;99940.03;4974958;28;20125;-87
2022/08/16 06:52:04;;;;;;;13.43;6.85;;;;;;;25.29;86.50;99936.25;4974958;28;20443;-90
2022/08/16 06:54:35;;;;;;;13.10;6.60;;;;;;;26.00;81.22;99931.47;4957830;28;20026;-84
2022/08/16 06:57:01;;;;;;;13.52;6.28;;;;;;;26.66;77.09;99934.69;4954892;28;20019;-84
2022/08/16 06:59:26;;;;;;;13.05;6.50;;;;;;;26.66;74.79;99940.94;4963980;28;20035;-89
2022/08/16 07:01:56;;;;;;;9.90;5.85;;;;;;;26.45;76.60;99935.94;4961650;28;20082;-85
2022/08/16 07:04:25;;;;;;;20.27;7.28;;;;;;;26.24;77.65;99939.84;4961808;28;20030;-86
2022/08/16 07:06:50;;;;;;;15.38;6.10;;;;;;;26.07;79.37;99949.13;4958932;28;20034;-87
2022/08/16 07:09:16;;;;;;;13.65;5.78;;;;;;;26.82;73.94;99952.56;4957331;28;20097;-86
2022/08/16 07:11:45;;;;;;;7.22;5.85;;;;;;;27.18;71.42;99947.66;4957736;28;20026;-87
2022/08/16 07:14:12;;;;;;;8.52;5.40;;;;;;;27.64;69.74;99939.94;4959607;28;20385;-85
2022/08/16 07:16:45;;;;;;;8.55;5.10;;;;;;;27.48;68.55;99957.50;4946606;28;20049;-85
2022/08/16 07:19:11;;;;;;;9.15;5.50;;;;;;;27.02;71.79;99954.31;4976692;28;20393;-87
2022/08/16 07:21:40;;;;;;;7.55;5.18;;;;;;;27.44;69.55;99956.47;4958631;28;20400;-83
2022/08/16 07:24:06;;;;;;;7.93;5.18;;;;;;;28.05;65.02;99951.16;4957869;28;20571;-85
2022/08/16 07:26:36;;;;;;;10.95;5.72;;;;;;;28.62;62.72;99961.06;4958001;28;20476;-88
2022/08/16 07:29:02;;;;;;;10.10;4.75;;;;;;;28.30;64.01;99959.06;4957608;28;20090;-87
2022/08/16 07:31:28;;;;;;;13.07;6.22;;;;;;;27.80;66.94;99963.16;4957897;28;20039;-85
2022/08/16 07:33:54;;;;;;;12.98;5.40;;;;;;;28.12;64.81;99952.47;4974980;28;20484;-87
2022/08/16 07:36:25;;;;;;;11.02;5.93;;;;;;;28.52;62.03;99961.22;4957549;28;20149;-88
2022/08/16 07:38:51;;;;;;;12.57;5.90;;;;;;;27.71;66.39;99951.25;4961541;28;20035;-88
2022/08/16 07:41:17;;;;;;;9.98;6.20;;;;;;;28.19;64.30;99954.84;4961588;28;20030;-85
2022/08/16 07:43:47;;;;;;;9.90;5.22;;;;;;;28.94;60.18;99963.88;4963119;28;20039;-86
2022/08/16 07:46:14;;;;;;;11.27;5.65;;;;;;;28.93;60.55;99967.75;4961529;28;20085;-83
2022/08/16 07:48:41;;;;;;;8.75;5.20;;;;;;;29.28;58.46;99971.00;4961469;28;20106;-85
2022/08/16 07:51:09;;;;;;;10.85;5.30;;;;;;;28.99;60.01;99971.19;4961552;28;20030;-85
2022/08/16 07:53:38;;;;;;;10.30;5.68;;;;;;;28.54;61.58;99967.16;4961216;28;20100;-85
2022/08/16 07:56:05;;;;;;;10.10;5.30;;;;;;;28.62;61.10;99972.78;4961461;28;20514;-89
2022/08/16 07:58:36;;;;;;;9.23;5.47;;;;;;;29.16;58.61;99972.28;4978523;28;20504;-88
2022/08/16 08:01:13;;;;;;;12.13;5.07;;;;;;;29.16;59.14;99966.81;4960829;28;20034;-85
2022/08/16 08:03:51;;;;;;;8.73;4.22;;;;;;;30.16;55.42;99963.34;4961093;28;20058;-85
2022/08/16 08:06:29;;;;;;;14.38;4.90;;;;;;;30.50;53.24;99964.88;4961393;28;20129;-84
2022/08/16 08:08:59;;;;;;;17.10;5.20;;;;;;;29.82;55.74;99971.13;4961420;28;20121;-88
2022/08/16 08:11:27;;;;;;;10.68;5.57;;;;;;;29.31;58.31;99984.06;4961160;28;20039;-84
2022/08/16 08:13:53;;;;;;;9.40;5.40;;;;;;;29.18;58.78;99980.16;4961929;28;20062;-85
2022/08/16 08:16:20;;;;;;;15.20;6.00;;;;;;;29.47;58.24;99985.44;4961114;28;20502;-85
2022/08/16 08:18:48;;;;;;;10.35;5.97;;;;;;;29.86;56.28;99985.84;4960634;28;20043;-87
2022/08/16 08:21:15;;;;;;;10.32;4.50;;;;;;;30.47;54.15;99965.47;4960907;28;20039;-86
2022/08/16 08:23:43;;;;;;;13.50;4.88;;;;;;;30.94;51.93;99981.38;4977760;28;20496;-88
2022/08/16 08:26:09;;;;;;;10.73;5.15;;;;;;;31.19;50.95;99979.97;4960641;28;20034;-86
2022/08/16 08:28:34;;;;;;;11.85;5.80;;;;;;;30.80;51.96;99983.34;4960229;28;20039;-85
2022/08/16 08:31:03;;;;;;;15.80;5.65;;;;;;;31.13;51.48;99983.94;4960120;28;20034;-88
2022/08/16 08:33:37;;;;;;;10.60;5.20;;;;;;;30.73;52.49;99975.56;4962278;28;20376;-89
2022/08/16 08:36:06;;;;;;;13.65;6.50;;;;;;;30.51;53.16;99974.69;4962048;28;20043;-84
2022/08/16 08:38:34;;;;;;;13.63;5.65;;;;;;;30.85;52.01;99975.03;4961030;28;20527;-90
2022/08/16 08:41:03;;;;;;;9.98;5.22;;;;;;;31.20;51.41;99987.88;4961296;28;20492;-88
2022/08/16 08:43:29;;;;;;;8.90;5.65;;;;;;;30.91;52.01;99984.72;4960849;28;20401;-87
2022/08/16 08:45:57;;;;;;;15.75;5.15;;;;;;;30.56;53.17;99977.34;4961294;28;20026;-90
2022/08/16 08:48:24;;;;;;;16.02;4.75;;;;;;;31.66;49.48;99994.94;4961511;28;20043;-86
2022/08/16 08:50:50;;;;;;;12.40;5.20;;;;;;;31.08;50.93;99987.63;4962016;28;20472;-90
2022/08/16 08:53:15;;;;;;;8.60;4.88;;;;;;;31.68;48.83;99992.72;4979343;28;20030;-85
2022/08/16 08:55:41;;;;;;;8.95;4.85;;;;;;;31.24;49.22;99991.63;4961298;28;20027;-86
2022/08/16 08:58:08;;;;;;;11.30;5.25;;;;;;;31.63;47.77;99990.91;4961092;28;20042;-89
2022/08/16 09:00:56;;;;;;;7.45;3.70;;;;;;;31.70;48.93;99996.75;4977568;28;20042;-88
2022/08/16 09:03:21;;;;;;;9.07;4.25;;;;;;;32.03;46.98;99986.25;4960576;28;20042;-86
2022/08/16 09:05:50;;;;;;;12.63;4.07;;;;;;;31.67;47.02;99996.59;4959833;28;20043;-87
2022/08/16 09:08:16;;;;;;;14.50;4.95;;;;;;;32.21;45.82;99990.72;4961455;28;20039;-87
2022/08/16 09:10:47;;;;;;;15.75;4.53;;;;;;;32.27;46.67;99994.13;4961465;28;20535;-89
2022/08/16 09:13:13;;;;;;;8.32;3.97;;;;;;;32.76;45.43;99984.69;4961026;28;20051;-85
2022/08/16 09:15:47;;;;;;;11.25;5.47;;;;;;;33.02;45.19;99993.75;4961678;28;20048;-86
2022/08/16 09:18:16;;;;;;;11.93;4.90;;;;;;;33.12;44.99;100003.63;4961812;28;20461;-88
2022/08/16 09:20:43;;;;;;;9.80;4.20;;;;;;;34.22;41.80;99998.19;4960824;28;20035;-88
2022/08/16 09:23:09;;;;;;;8.32;4.68;;;;;;;33.33;43.66;100003.78;4961764;28;20069;-88
2022/08/16 09:25:40;;;;;;;18.63;5.20;;;;;;;32.74;45.08;100004.25;4961805;28;20066;-89
2022/08/16 09:28:11;;;;;;;8.80;5.53;;;;;;;32.96;44.32;99994.22;4961371;28;20046;-87
2022/08/16 09:30:44;;;;;;;9.43;4.28;;;;;;;32.94;44.74;100007.50;4944975;28;20042;-88
2022/08/16 09:33:17;;;;;;;11.23;4.72;;;;;;;32.80;44.97;100004.91;4977728;28;20121;-87
2022/08/16 09:35:43;;;;;;;;;;;;;;;32.41;45.60;100015.94;4978701;28;20090;-86
2022/08/16 09:38:11;;;;;;;20.20;4.00;;;;;;;33.39;43.22;100018.94;4978534;28;19918;-85
2022/08/16 09:40:36;;;;;;;8.50;4.60;;;;;;;33.51;42.86;100016.38;4960484;28;20066;-86
2022/08/16 09:43:03;;;;;;;10.80;4.38;;;;;;;33.13;43.44;100008.00;4976044;28;20062;-88
2022/08/16 09:45:29;;;;;;;9.95;4.60;;;;;;;32.80;43.40;100013.13;4966260;28;20300;-86
2022/08/16 09:47:56;;;;;;;10.77;4.70;;;;;;;31.93;45.61;100013.97;4983037;28;20039;-85
2022/08/16 09:50:28;;;;;;;11.15;4.13;;;;;;;31.66;47.14;100011.41;4981941;28;20117;-87
2022/08/16 09:52:53;;;;;;;10.63;3.78;;;;;;;32.44;44.84;100009.81;4979931;28;20037;-85
2022/08/16 09:55:19;;;;;;;9.93;3.53;;;;;;;32.57;44.25;100009.72;4988375;28;20062;-86
2022/08/16 09:57:44;;;;;;;7.10;3.95;;;;;;;32.68;44.01;100011.00;4983049;28;20393;-89
2022/08/16 10:00:11;;;;;;;7.85;3.42;;;;;;;33.25;42.53;100014.44;4976800;28;20070;-86
2022/08/16 10:02:40;;;;;;;6.00;3.20;;;;;;;33.16;42.27;100005.41;4977435;28;20495;-90
2022/08/16 10:05:06;;;;;;;7.50;3.33;;;;;;;33.72;40.90;100006.28;4978816;28;20043;-90
2022/08/16 10:07:32;;;;;;;9.68;3.28;;;;;;;33.34;41.51;100005.41;4977790;28;20039;-84
2022/08/16 10:09:57;;;;;;;10.90;2.88;;;;;;;34.35;39.60;100007.34;4977695;28;20069;-88
2022/08/16 10:15:12;;;;;;;8.07;3.05;;;;;;;34.46;39.65;100003.91;4977882;28;20046;-86
2022/08/16 10:17:41;;;;;;;9.13;2.97;;;;;;;33.61;40.95;100005.84;4945307;28;20063;-89
2022/08/16 10:20:10;;;;;;;5.47;3.03;;;;;;;33.40;41.50;99993.09;4980310;28;20481;-85
2022/08/16 10:22:37;;;;;;;7.45;3.13;;;;;;;33.71;41.23;100005.50;4978617;28;20034;-90
2022/08/16 10:25:04;;;;;;;11.70;2.63;;;;;;;33.94;40.71;100002.53;4978640;28;20039;-90
2022/08/16 10:27:30;;;;;;;7.35;2.90;;;;;;;33.88;40.91;100003.81;4983080;28;20094;-86
2022/08/16 10:29:55;;;;;;;8.60;2.92;;;;;;;34.00;39.99;100007.50;4993511;28;20038;-83
2022/08/16 10:32:21;;;;;;;8.35;2.70;;;;;;;34.04;40.06;100000.19;4995041;28;20149;-85
2022/08/16 10:34:46;;;;;;;8.98;2.58;;;;;;;34.65;38.80;100003.47;4999383;28;20026;-87
2022/08/16 10:37:12;;;;;;;11.10;2.97;;;;;;;34.61;38.26;100002.50;4999344;28;20031;-84
2022/08/16 10:39:40;;;;;;;8.80;3.03;;;;;;;34.53;39.11;100000.63;4993936;28;20118;-86
2022/08/16 10:42:06;;;;;;;5.88;2.60;;;;;;;34.94;38.19;99980.56;4977788;28;20042;-85
2022/08/16 10:44:31;;;;;;;3.97;2.30;;;;;;;34.57;38.34;99990.56;4977588;28;20027;-89
2022/08/16 10:46:57;;;;;;;11.25;2.78;;;;;;;33.23;40.80;99994.75;4980125;28;20039;-84
2022/08/16 10:49:22;;;;;;;5.32;2.70;;;;;;;33.41;40.75;99983.72;4964347;28;20061;-86
2022/08/16 10:51:48;;;;;;;6.57;2.97;;;;;;;32.94;41.74;99989.09;4976177;28;20027;-87
2022/08/16 10:54:14;;;;;;;5.85;2.60;;;;;;;33.08;41.53;99984.22;4975523;28;20035;-89
2022/08/16 10:56:39;;;;;;;10.48;2.72;;;;;;;33.69;39.78;99987.72;4976859;28;20034;-88
2022/08/16 10:59:05;;;;;;;4.97;2.53;;;;;;;33.83;39.60;99996.56;4958575;28;20507;-88
2022/08/16 11:01:31;;;;;;;8.10;2.90;;;;;;;33.60;39.82;99995.97;4976497;28;20125;-91
2022/08/16 11:03:56;;;;;;;12.07;2.88;;;;;;;32.98;41.01;100002.97;4977000;28;20027;-86
2022/08/16 11:06:22;;;;;;;8.65;2.60;;;;;;;33.23;40.48;99992.00;4976433;28;20046;-87
2022/08/16 11:08:48;;;;;;;8.45;2.85;;;;;;;33.09;40.85;99996.00;4990289;28;20484;-86
2022/08/16 11:11:14;;;;;;;12.20;3.20;;;;;;;33.46;40.03;99997.28;4995608;28;20026;-89
2022/08/16 11:13:41;;;;;;;7.78;2.60;;;;;;;33.24;40.40;100004.56;4993825;28;20042;-85
2022/08/16 11:16:07;;;;;;;8.00;2.72;;;;;;;33.63;39.61;99998.09;4993304;28;20551;-86
2022/08/16 11:18:33;;;;;;;6.07;2.28;;;;;;;34.30;38.22;99996.53;4975538;28;20030;-86
2022/08/16 11:20:59;;;;;;;7.90;2.85;;;;;;;34.24;38.15;100013.22;4994210;28;20042;-87
2022/08/16 11:23:28;;;;;;;12.90;2.72;;;;;;;34.44;37.65;100005.38;4971857;28;20040;-89
2022/08/16 11:25:56;;;;;;;8.48;2.60;;;;;;;33.72;38.87;100012.59;4999665;28;20034;-87
2022/08/16 11:28:23;;;;;;;4.50;2.63;;;;;;;34.45;38.08;99991.25;4964294;28;20084;-85
2022/08/16 11:30:50;;;;;;;8.70;3.13;;;;;;;34.37;38.06;99994.09;4985378;28;20162;-85